Have a Safe July 4th! 

Flight Track Log - Related Links

Times and Time Zones

All times are in EDT time to prevent confusion due to time zone crossing. See the UAL3486 flight status page for this flight to view local times or setup timezone preferences in your user account.

Time Position Orientation Groundspeed Altitude Reporting Facility
EDT Latitude Longitude Course Direction KTS MPH feet Rate Location/Type
Sun 08:53:57 AM 29.9906 -90.2533 102° East 148 170 600  Level Houston Center
Sun 08:54:09 AM 29.9883 -90.2414 102° East 149 171 1,200 2,032 Climbing Houston Center
Sun 08:54:59 AM 29.9869 -90.2011 92° East 177 204 2,700 1,892 Climbing Houston Center
Sun 08:56:00 AM 30.0289 -90.1364 53° Northeast 246 283 4,700 2,585 Climbing Houston Center
Sun 08:57:02 AM 30.0833 -90.0656 48° Northeast 287 330 8,000 2,878 Climbing Houston Center
Sun 08:58:03 AM 30.1408 -89.9872 50° Northeast 310 357 10,600 2,213 Climbing Houston Center
Sun 08:59:04 AM 30.2050 -89.8931 52° Northeast 362 417 12,500 2,439 Climbing Houston Center
Sun 09:00:06 AM 30.2922 -89.7872 46° Northeast 378 435 15,600 2,585 Climbing Houston Center
Sun 09:01:07 AM 30.3714 -89.7081 41° Northeast 395 455 17,800 2,115 Climbing Houston Center
Sun 09:02:08 AM 30.4500 -89.6158 45° Northeast 411 473 19,900 2,098 Climbing Houston Center
Sun 09:03:10 AM 30.5139 -89.5019 57° Northeast 420 483 22,100 1,854 Climbing Houston Center
Sun 09:04:11 AM 30.5794 -89.3864 57° Northeast 426 490 23,700 1,820 Climbing Houston Center
Sun 09:05:12 AM 30.6589 -89.2397 58° Northeast 448 516 25,800 1,512 Climbing Houston Center
Sun 09:06:14 AM 30.7283 -89.1153 57° Northeast 458 527 26,800 1,122 Climbing Houston Center
Sun 09:07:15 AM 30.8006 -88.9861 57° Northeast 474 545 28,100 1,268 Climbing Houston Center
Sun 09:08:17 AM 30.8686 -88.8586 58° Northeast 478 550 29,400 1,171 Climbing Houston Center
Sun 09:09:18 AM 30.9408 -88.7267 57° Northeast 479 551 30,500 1,279 Climbing Houston Center
Sun 09:10:19 AM 31.0167 -88.5897 57° Northeast 487 560 32,000 1,366 Climbing Houston Center
Sun 09:11:21 AM 31.0883 -88.4606 57° Northeast 479 551 33,300 976 Climbing Houston Center
Sun 09:12:22 AM 31.1569 -88.3292 59° Northeast 477 549 34,000 344 Climbing Houston Center
Sun 09:13:23 AM 31.2314 -88.1967 57° Northeast 476 548 34,000 195 Level Houston Center
Sun 09:14:25 AM 31.3014 -88.0656 58° Northeast 475 547 34,400 488 Climbing Houston Center
Sun 09:15:26 AM 31.3711 -87.9358 58° Northeast 471 542 35,000 295 Climbing Houston Center
Sun 09:16:27 AM 31.4581 -87.7731 58° Northeast 491 565 35,000  Level Houston Center
Sun 09:17:29 AM 31.5300 -87.6383 58° Northeast 492 566 35,000  Level Houston Center
Sun 09:18:30 AM 31.6019 -87.5022 58° Northeast 491 565 35,000  Level Houston Center
Sun 09:19:31 AM 31.6739 -87.3664 58° Northeast 491 565 35,000  Level Houston Center
Sun 09:20:33 AM 31.7456 -87.2311 58° Northeast 490 564 35,000  Level Houston Center
Sun 09:21:34 AM 31.8178 -87.0942 58° Northeast 491 565 35,000  Level Houston Center
Sun 09:22:35 AM 31.8894 -86.9575 58° Northeast 491 565 35,000  Level Houston Center
Sun 09:23:37 AM 31.9614 -86.8192 58° Northeast 492 566 35,000  Level Houston Center
Sun 09:24:38 AM 32.0328 -86.6819 58° Northeast 493 567 35,000  Level Houston Center
Sun 09:25:53 AM 32.1417 -86.4942 56° Northeast 485 558 35,000  Level Atlanta Center
Sun 09:26:53 AM 32.2006 -86.3681 61° Northeast 490 564 35,000  Level Atlanta Center
Sun 09:27:53 AM 32.2867 -86.2231 55° Northeast 484 557 35,000  Level Atlanta Center
Sun 09:28:53 AM 32.3683 -86.0947 53° Northeast 484 557 35,000  Level Atlanta Center
Sun 09:29:53 AM 32.4539 -85.9661 52° Northeast 489 563 35,000  Level Atlanta Center
Sun 09:30:53 AM 32.5392 -85.8350 52° Northeast 494 568 35,000  Level Atlanta Center
Sun 09:31:53 AM 32.6203 -85.7061 53° Northeast 494 568 35,000  Level Atlanta Center
Sun 09:32:53 AM 32.7033 -85.5767 53° Northeast 494 568 35,000  Level Atlanta Center
Sun 09:33:53 AM 32.7883 -85.4497 51° Northeast 489 563 35,000  Level Atlanta Center
Sun 09:34:53 AM 32.8692 -85.3200 53° Northeast 489 563 35,000  Level Atlanta Center
Sun 09:35:53 AM 32.9519 -85.1925 52° Northeast 483 556 35,000  Level Atlanta Center
Sun 09:36:53 AM 33.0364 -85.0672 51° Northeast 483 556 35,000  Level Atlanta Center
Sun 09:37:53 AM 33.1167 -84.9392 53° Northeast 483 556 35,000  Level Atlanta Center
Sun 09:38:53 AM 33.1969 -84.8083 54° Northeast 483 556 35,000  Level Atlanta Center
Sun 09:39:53 AM 33.2708 -84.6922 53° Northeast 483 556 35,000  Level Atlanta Center
Sun 09:40:53 AM 33.3528 -84.5611 53° Northeast 483 556 35,000  Level Atlanta Center
Sun 09:41:53 AM 33.4325 -84.4322 53° Northeast 483 556 35,000  Level Atlanta Center
Sun 09:42:53 AM 33.5122 -84.2981 54° Northeast 483 556 35,000  Level Atlanta Center
Sun 09:43:53 AM 33.5958 -84.1661 53° Northeast 483 556 35,000  Level Atlanta Center
Sun 09:44:53 AM 33.6772 -84.0339 53° Northeast 488 562 35,000  Level Atlanta Center
Sun 09:45:53 AM 33.7586 -83.8989 54° Northeast 488 562 35,000  Level Atlanta Center
Sun 09:46:53 AM 33.8400 -83.7661 54° Northeast 488 562 35,000  Level Atlanta Center
Sun 09:47:53 AM 33.9208 -83.6383 53° Northeast 483 556 35,000  Level Atlanta Center
Sun 09:48:53 AM 34.0017 -83.5025 54° Northeast 483 556 35,000  Level Atlanta Center
Sun 09:49:53 AM 34.0783 -83.3742 54° Northeast 483 556 35,000  Level Atlanta Center
Sun 09:50:53 AM 34.1589 -83.2381 54° Northeast 488 562 35,000  Level Atlanta Center
Sun 09:51:53 AM 34.2478 -83.0939 53° Northeast 488 562 35,000  Level Atlanta Center
Sun 09:52:53 AM 34.3281 -82.9597 54° Northeast 488 562 35,000  Level Atlanta Center
Sun 09:53:53 AM 34.4061 -82.8303 54° Northeast 483 556 35,000  Level Atlanta Center
Sun 09:54:53 AM 34.4861 -82.7006 53° Northeast 483 556 35,000  Level Atlanta Center
Sun 09:55:53 AM 34.5639 -82.5681 54° Northeast 477 549 35,000  Level Atlanta Center
Sun 09:56:53 AM 34.6417 -82.4356 54° Northeast 477 549 35,000  Level Atlanta Center
Sun 09:57:53 AM 34.7211 -82.3000 54° Northeast 483 556 35,000  Level Atlanta Center
Sun 09:58:53 AM 34.8006 -82.1719 53° Northeast 483 556 35,000  Level Atlanta Center
Sun 09:59:53 AM 34.8778 -82.0386 55° Northeast 483 556 35,000  Level Atlanta Center
Sun 10:00:53 AM 34.9489 -81.9228 53° Northeast 483 556 35,000  Level Atlanta Center
Sun 10:01:53 AM 35.0236 -81.7892 56° Northeast 478 550 35,000  Level Atlanta Center
Sun 10:02:53 AM 35.1047 -81.6522 54° Northeast 485 558 35,000  Level Atlanta Center
Sun 10:03:53 AM 35.1769 -81.5181 57° Northeast 479 551 35,000  Level Atlanta Center
Sun 10:04:53 AM 35.2556 -81.3833 54° Northeast 479 551 35,000  Level Atlanta Center
Sun 10:05:53 AM 35.3319 -81.2461 56° Northeast 479 551 35,000 -200 Level Atlanta Center
Sun 10:06:53 AM 35.4100 -81.1083 55° Northeast 484 557 34,600 -650 Descending Atlanta Center
Sun 10:07:53 AM 35.4961 -80.9572 55° Northeast 490 564 33,700 -800 Descending Atlanta Center
Sun 10:08:53 AM 35.5739 -80.8192 55° Northeast 483 556 33,000 -350 Descending Atlanta Center
Sun 10:09:53 AM 35.6494 -80.6883 55° Northeast 483 556 33,000  Level Atlanta Center
Sun 10:10:53 AM 35.7250 -80.5522 56° Northeast 483 556 33,000  Level Atlanta Center
Sun 10:11:53 AM 35.8006 -80.4183 55° Northeast 483 556 33,000  Level Atlanta Center
Sun 10:13:53 AM 35.9525 -80.1467 55° Northeast 505 581 33,000  Level Washington Center
Sun 10:14:54 AM 36.0217 -80.0272 54° Northeast 480 552 33,000  Level Washington Center
Sun 10:15:55 AM 36.1022 -79.8800 56° Northeast 473 544 33,000  Level Washington Center
Sun 10:16:55 AM 36.1803 -79.7378 56° Northeast 481 554 33,000  Level Washington Center
Sun 10:17:53 AM 36.2489 -79.6178 55° Northeast 490 564 33,000  Level Washington Center
Sun 10:18:53 AM 36.3331 -79.4697 55° Northeast 477 549 33,000  Level Washington Center
Sun 10:19:54 AM 36.3997 -79.3467 56° Northeast 477 549 33,000 -298 Level Washington Center
Sun 10:20:54 AM 36.4747 -79.2108 55° Northeast 477 549 32,400 -1,664 Descending Washington Center
Sun 10:21:53 AM 36.5606 -79.0647 54° Northeast 471 542 29,700 -2,571 Descending Washington Center
Sun 10:22:53 AM 36.6353 -78.9336 55° Northeast 466 536 27,300 -2,331 Descending Washington Center
Sun 10:23:54 AM 36.7036 -78.8017 57° Northeast 456 525 25,000 -1,140 Descending Washington Center
Sun 10:24:54 AM 36.7736 -78.6803 54° Northeast 449 517 25,000  Level Washington Center
Sun 10:25:55 AM 36.8428 -78.5767 50° Northeast 443 510 25,000  Level Washington Center
Sun 10:26:55 AM 36.9314 -78.4553 48° Northeast 432 497 25,000  Level Washington Center
Sun 10:27:53 AM 37.0228 -78.3806 33° Northeast 427 491 25,000  Level Washington Center
Sun 10:28:53 AM 37.1169 -78.2772 41° Northeast 432 497 25,000 -400 Level Washington Center
Sun 10:29:53 AM 37.2175 -78.1711 40° Northeast 432 497 24,200 -893 Descending Washington Center
Sun 10:30:54 AM 37.3028 -78.0747 42° Northeast 426 490 23,200 -984 Descending Washington Center
Sun 10:31:55 AM 37.3944 -77.9758 41° Northeast 421 484 22,200 -595 Descending Washington Center
Sun 10:32:55 AM 37.4819 -77.8767 42° Northeast 421 484 22,000 -100 Descending Washington Center
Sun 10:33:55 AM 37.5814 -77.7983 32° Northeast 421 484 22,000 -712 Level Washington Center
Sun 10:34:53 AM 37.6828 -77.7383 25° Northeast 415 478 20,600 -1,765 Descending Washington Center
Sun 10:35:54 AM 37.7817 -77.6806 25° Northeast 397 457 18,500 -2,083 Descending Washington Center
Sun 10:36:54 AM 37.8786 -77.6256 24° Northeast 385 443 16,400 -1,983 Descending Washington Center
Sun 10:37:55 AM 37.9714 -77.5672 26° Northeast 380 437 14,500 -1,721 Descending Washington Center
Sun 10:38:56 AM 38.0533 -77.5247 22° Northeast 362 417 12,900 -1,729 Descending Washington Center
Sun 10:39:53 AM 38.1397 -77.4742 25° Northeast 351 404 11,100 -1,475 Descending Washington Center
Sun 10:40:54 AM 38.2219 -77.4233 26° Northeast 338 389 10,000 -541 Descending Washington Center
Sun 10:41:55 AM 38.2933 -77.3800 25° Northeast 310 357 10,000 -403 Level Washington Center
Sun 10:42:53 AM 38.3603 -77.3683 North 282 325 9,200 -1,271 Descending Washington Center
Sun 10:43:53 AM 38.4267 -77.3911 345° North 240 276 7,500 -1,339 Descending Washington Center
Sun 10:44:54 AM 38.4931 -77.4114 347° North 235 270 6,500 -1,230 Descending Washington Center
Sun 10:45:55 AM 38.5575 -77.4317 346° North 240 276 5,000 -1,109 Descending Washington Center
Sun 10:46:53 AM 38.6258 -77.4519 347° North 240 276 4,300 -756 Descending Washington Center
Sun 10:47:54 AM 38.6925 -77.4669 350° North 240 276 3,500 -645 Descending Washington Center
Sun 10:48:54 AM 38.7611 -77.4658 North 240 276 3,000 -644 Descending Washington Center
Sun 10:50:23 AM 38.8500 -77.4667 360° North 173 199 1,900 -765 Descending Potomac TRACON
Sun 10:51:23 AM 38.9000 -77.4667 360° North 129 148 1,100 -700 Descending Potomac TRACON
Sun 10:52:23 AM 38.9333 -77.4667 360° North 121 139 500 -600 Descending Potomac TRACON

Login

Don't have an account? Register now (free) for customized features, flight alerts, and more!